»·PEaware :: N733BE KLVK-KFUL

N733BE :: KLVK-KFUL

FLIGHT INFORMATION

Flight Status: Arrived
Operator: Privately registered:
United States
More flights under this callsign
Pilot: Robert S. (15277)
Aircraft: CESSNA 172 SKYHAWK
(C172)
More flights by this aircraft type
Origin: KLVK Livermore Mun
United States
Destination: KFUL Fullerton Mun
United States
More flights between these airports :: More routes between these airports
Route: +SNS V25 PRB MQO GVO ZIQOR VTU VPSEP LAX VPLVT SLI
File this flight plan on PilotEdge
Remarks:
Altitude:
(Current/Filed)
7,500ft
Speed:
(Current/Filed)
110kts
Departed: 02-Sep-19 03:59 PM
Arrived: 02-Sep-19 07:04 PM
Distance/Time
Traveled:
296nm/3:04
Distance/Time
To Go:
Arrived

Flight Plot

Page will automatically refresh every two minutes.


Map Options




Map Legend


Flown Route
Filed Route
Departure Airport
Arrival Airport
Navaid (VOR, NDB)
Fix

Horizontal Profiles

Position Reports

Time Latitude Longitude Heading Altitude Ground
Speed
02-Sep-19 15:43 37.695251 -121.810649 271 399ft 0kts
02-Sep-19 15:44 37.695251 -121.810689 270 399ft 0kts
02-Sep-19 15:45 37.695251 -121.810689 270 399ft 0kts
02-Sep-19 15:46 37.695251 -121.810689 270 399ft 0kts
02-Sep-19 15:47 37.695251 -121.810689 270 399ft 0kts
02-Sep-19 15:48 37.695251 -121.810689 270 399ft 0kts
02-Sep-19 15:49 37.695251 -121.810689 270 399ft 0kts
02-Sep-19 15:50 37.695251 -121.810689 270 399ft 0kts
02-Sep-19 15:51 37.695251 -121.810689 270 399ft 0kts
02-Sep-19 15:52 37.695251 -121.810689 270 399ft 0kts
02-Sep-19 15:53 37.695252 -121.810698 270 399ft 0kts
02-Sep-19 15:54 37.695252 -121.810698 270 399ft 0kts
02-Sep-19 15:55 37.695252 -121.810698 270 399ft 0kts
02-Sep-19 15:56 37.694894 -121.811058 233 401ft 8kts
02-Sep-19 15:57 37.693796 -121.811523 258 403ft 7kts
02-Sep-19 15:58 37.693773 -121.831928 276 685ft 79kts
02-Sep-19 15:59 37.680491 -121.851464 184 1363ft 96kts
02-Sep-19 16:00 37.654445 -121.840782 162 2038ft 99kts
02-Sep-19 16:01 37.629652 -121.824891 155 2672ft 101kts
02-Sep-19 16:02 37.609340 -121.816129 175 3156ft 97kts
02-Sep-19 16:03 37.582778 -121.808594 165 3763ft 99kts
02-Sep-19 16:04 37.556741 -121.797118 177 4346ft 97kts
02-Sep-19 16:05 37.530937 -121.785079 169 4904ft 99kts
02-Sep-19 16:06 37.504368 -121.779885 177 5435ft 96kts
02-Sep-19 16:07 37.474595 -121.773482 175 5595ft 116kts
02-Sep-19 16:08 37.441756 -121.766886 175 5506ft 119kts
02-Sep-19 16:09 37.409079 -121.760833 177 5553ft 117kts
02-Sep-19 16:10 37.376886 -121.754956 177 5904ft 116kts
02-Sep-19 16:11 37.344795 -121.749013 177 6256ft 116kts
02-Sep-19 16:12 37.312872 -121.742346 175 6587ft 117kts
02-Sep-19 16:13 37.281039 -121.734414 174 6896ft 117kts
02-Sep-19 16:14 37.249417 -121.727281 176 7206ft 114kts
02-Sep-19 16:15 37.218323 -121.720500 175 7496ft 112kts
02-Sep-19 16:16 37.187119 -121.713814 175 7522ft 108kts
02-Sep-19 16:17 37.159052 -121.707834 175 7507ft 98kts
02-Sep-19 16:18 37.131437 -121.702316 175 7516ft 105kts
02-Sep-19 16:19 37.101706 -121.696992 175 7535ft 108kts
02-Sep-19 16:20 37.071778 -121.691569 175 7569ft 109kts
02-Sep-19 16:21 37.041577 -121.685981 175 7563ft 110kts
02-Sep-19 16:22 37.011301 -121.680224 175 7556ft 109kts
02-Sep-19 16:23 36.981382 -121.674354 175 7547ft 109kts
02-Sep-19 16:24 36.951465 -121.668247 175 7538ft 108kts
02-Sep-19 16:25 36.921608 -121.661525 175 7529ft 109kts
02-Sep-19 16:26 36.891531 -121.654030 176 7546ft 109kts
02-Sep-19 16:27 36.861210 -121.647173 177 7565ft 112kts
02-Sep-19 16:28 36.830384 -121.639698 177 7579ft 114kts
02-Sep-19 16:29 36.799115 -121.631658 176 7592ft 115kts
02-Sep-19 16:30 36.767411 -121.625727 180 7606ft 115kts
02-Sep-19 16:31 36.735722 -121.620281 180 7618ft 115kts
02-Sep-19 16:32 36.703764 -121.614784 180 7601ft 117kts
02-Sep-19 16:33 36.671625 -121.608579 179 7612ft 116kts
02-Sep-19 16:34 36.643979 -121.582740 148 7623ft 126kts
02-Sep-19 16:35 36.616735 -121.555022 148 7635ft 126kts
02-Sep-19 16:36 36.589483 -121.527528 148 7649ft 124kts
02-Sep-19 16:37 36.562477 -121.500565 148 7601ft 126kts
02-Sep-19 16:38 36.534848 -121.473129 148 7513ft 127kts
02-Sep-19 16:39 36.507388 -121.445858 148 7481ft 124kts
02-Sep-19 16:40 36.480901 -121.419184 148 7573ft 121kts
02-Sep-19 16:41 36.454228 -121.392371 148 7578ft 124kts
02-Sep-19 16:42 36.427402 -121.365455 148 7577ft 124kts
02-Sep-19 16:43 36.400443 -121.338390 149 7574ft 124kts
02-Sep-19 16:44 36.373683 -121.311460 149 7574ft 123kts
02-Sep-19 16:45 36.346917 -121.284502 148 7574ft 123kts
02-Sep-19 16:46 36.320271 -121.257653 148 7574ft 123kts
02-Sep-19 16:47 36.293582 -121.230747 148 7574ft 123kts
02-Sep-19 16:48 36.266895 -121.203833 148 7574ft 123kts
02-Sep-19 16:49 36.240257 -121.177037 148 7569ft 123kts
02-Sep-19 16:50 36.213602 -121.150476 148 7562ft 122kts
02-Sep-19 16:51 36.187075 -121.124315 148 7555ft 121kts
02-Sep-19 16:52 36.160565 -121.098468 148 7548ft 121kts
02-Sep-19 16:53 36.134068 -121.072969 148 7537ft 120kts
02-Sep-19 16:54 36.107644 -121.047910 148 7527ft 119kts
02-Sep-19 16:55 36.081346 -121.023355 148 7520ft 118kts
02-Sep-19 16:56 36.054965 -120.999093 148 7514ft 118kts
02-Sep-19 16:57 36.028453 -120.975047 148 7511ft 118kts
02-Sep-19 16:58 36.002274 -120.950460 146 7510ft 118kts
02-Sep-19 16:59 35.977035 -120.926017 146 7509ft 112kts
02-Sep-19 17:00 35.952798 -120.902370 146 7510ft 110kts
02-Sep-19 17:01 35.928997 -120.879066 146 7510ft 109kts
02-Sep-19 17:02 35.905242 -120.855775 146 7510ft 109kts
02-Sep-19 17:03 35.881580 -120.832568 146 7513ft 109kts
02-Sep-19 17:04 35.857692 -120.809143 146 7512ft 110kts
02-Sep-19 17:05 35.833854 -120.785756 146 7512ft 110kts
02-Sep-19 17:06 35.809914 -120.762254 146 7512ft 110kts
02-Sep-19 17:07 35.786001 -120.738761 146 7512ft 110kts
02-Sep-19 17:08 35.762101 -120.715263 146 7512ft 110kts
02-Sep-19 17:09 35.738280 -120.691828 146 7512ft 110kts
02-Sep-19 17:10 35.714330 -120.668255 145 7512ft 110kts
02-Sep-19 17:11 35.690354 -120.644642 145 7512ft 110kts
02-Sep-19 17:12 35.664024 -120.633029 192 7513ft 104kts
02-Sep-19 17:13 35.635701 -120.641460 195 7512ft 104kts
02-Sep-19 17:14 35.607441 -120.649610 193 7512ft 104kts
02-Sep-19 17:15 35.579003 -120.657420 193 7512ft 104kts
02-Sep-19 17:16 35.550756 -120.665612 195 7512ft 104kts
02-Sep-19 17:17 35.522643 -120.674659 195 7512ft 104kts
02-Sep-19 17:18 35.494426 -120.683595 195 7511ft 104kts
02-Sep-19 17:19 35.466142 -120.692215 195 7509ft 105kts
02-Sep-19 17:20 35.438157 -120.700445 195 7507ft 105kts
02-Sep-19 17:21 35.409371 -120.708641 195 7506ft 106kts
02-Sep-19 17:22 35.380548 -120.717047 199 7504ft 106kts
02-Sep-19 17:23 35.352169 -120.727451 199 7503ft 107kts
02-Sep-19 17:24 35.323469 -120.737345 197 7502ft 107kts
02-Sep-19 17:25 35.294489 -120.746447 197 7502ft 107kts
02-Sep-19 17:26 35.265574 -120.755490 197 7502ft 107kts
02-Sep-19 17:27 35.238978 -120.740051 146 7503ft 114kts
02-Sep-19 17:28 35.212738 -120.718077 150 7503ft 115kts
02-Sep-19 17:29 35.186111 -120.696055 150 7503ft 115kts
02-Sep-19 17:31 35.159546 -120.674070 150 7503ft 115kts
02-Sep-19 17:32 35.133536 -120.650531 144 7504ft 116kts
02-Sep-19 17:33 35.108461 -120.626065 146 7506ft 116kts
02-Sep-19 17:34 35.082713 -120.602179 146 7509ft 116kts
02-Sep-19 17:35 35.056963 -120.578257 146 7512ft 116kts
02-Sep-19 17:36 35.031136 -120.554224 146 7516ft 116kts
02-Sep-19 17:37 35.005260 -120.530241 146 7519ft 116kts
02-Sep-19 17:38 34.979382 -120.506180 146 7520ft 116kts
02-Sep-19 17:39 34.953944 -120.482436 146 7520ft 113kts
02-Sep-19 17:40 34.929020 -120.459399 146 7519ft 111kts
02-Sep-19 17:41 34.902948 -120.438752 138 7521ft 113kts
02-Sep-19 17:42 34.877678 -120.414881 136 7519ft 116kts
02-Sep-19 17:43 34.851732 -120.390661 139 7520ft 118kts
02-Sep-19 17:44 34.826373 -120.365003 133 7517ft 118kts
02-Sep-19 17:45 34.800523 -120.339619 137 7514ft 120kts
02-Sep-19 17:46 34.774104 -120.314473 138 7510ft 121kts
02-Sep-19 17:47 34.747301 -120.289547 138 7504ft 122kts
02-Sep-19 17:48 34.720338 -120.264256 138 7498ft 122kts
02-Sep-19 17:49 34.693308 -120.238810 138 7494ft 123kts
02-Sep-19 17:49 34.670793 -120.217576 138 7494ft 123kts
02-Sep-19 17:50 34.643741 -120.191996 137 7494ft 123kts
02-Sep-19 17:52 34.612332 -120.162355 138 7495ft 123kts
02-Sep-19 17:53 34.584793 -120.137393 140 7495ft 123kts
02-Sep-19 17:53 34.561371 -120.117407 140 7495ft 123kts
02-Sep-19 17:54 34.533203 -120.093247 140 7495ft 123kts
02-Sep-19 17:55 34.505194 -120.069002 140 7497ft 123kts
02-Sep-19 17:57 34.473692 -120.039487 117 7505ft 118kts
02-Sep-19 17:57 34.467836 -120.007940 104 7499ft 112kts
02-Sep-19 17:58 34.462916 -119.969922 100 7292ft 120kts
02-Sep-19 17:59 34.458495 -119.928516 100 6794ft 125kts
02-Sep-19 18:00 34.457357 -119.885983 93 6290ft 125kts
02-Sep-19 18:01 34.457546 -119.844853 93 5783ft 120kts
02-Sep-19 18:02 34.457819 -119.805943 93 5497ft 112kts
02-Sep-19 18:03 34.458161 -119.767455 92 5498ft 114kts
02-Sep-19 18:04 34.458471 -119.728906 92 5498ft 114kts
02-Sep-19 18:05 34.458741 -119.690363 96 5497ft 114kts
02-Sep-19 18:06 34.449601 -119.654512 121 5497ft 111kts
02-Sep-19 18:07 34.431625 -119.624510 129 5498ft 110kts
02-Sep-19 18:08 34.413356 -119.594575 124 5498ft 110kts
02-Sep-19 18:09 34.396912 -119.563217 124 5498ft 110kts
02-Sep-19 18:10 34.380450 -119.531640 124 5497ft 110kts
02-Sep-19 18:11 34.364139 -119.500064 124 5497ft 111kts
02-Sep-19 18:12 34.346728 -119.468649 126 5497ft 115kts
02-Sep-19 18:13 34.326889 -119.435420 120 5499ft 125kts
02-Sep-19 18:14 34.307522 -119.399952 120 5499ft 126kts
02-Sep-19 18:15 34.288102 -119.364549 120 5499ft 126kts
02-Sep-19 18:16 34.268573 -119.329029 120 5498ft 126kts
02-Sep-19 18:17 34.249170 -119.293750 120 5498ft 126kts
02-Sep-19 18:18 34.229740 -119.258383 120 5498ft 125kts
02-Sep-19 18:19 34.210498 -119.223252 120 5498ft 125kts
02-Sep-19 18:20 34.191448 -119.188289 120 5498ft 124kts
02-Sep-19 18:21 34.172445 -119.153187 120 5499ft 124kts
02-Sep-19 18:22 34.153335 -119.118298 121 5499ft 124kts
02-Sep-19 18:23 34.134396 -119.084057 121 5499ft 125kts
02-Sep-19 18:24 34.117740 -119.046859 98 5499ft 123kts
02-Sep-19 18:25 34.113162 -119.005821 87 5499ft 122kts
02-Sep-19 18:26 34.112654 -118.964671 86 5499ft 122kts
02-Sep-19 18:27 34.113276 -118.923592 85 5499ft 122kts
02-Sep-19 18:28 34.113890 -118.882502 86 5499ft 122kts
02-Sep-19 18:29 34.114042 -118.841543 85 5499ft 122kts
02-Sep-19 18:30 34.115089 -118.800539 81 5499ft 122kts
02-Sep-19 18:31 34.113627 -118.759455 90 5499ft 122kts
02-Sep-19 18:32 34.112183 -118.718687 89 5499ft 120kts
02-Sep-19 18:33 34.111474 -118.678976 95 5499ft 116kts
02-Sep-19 18:34 34.110321 -118.639898 96 5500ft 117kts
02-Sep-19 18:35 34.108588 -118.600549 96 5501ft 117kts
02-Sep-19 18:36 34.107133 -118.561074 96 5495ft 118kts
02-Sep-19 18:37 34.095643 -118.526466 135 5495ft 112kts
02-Sep-19 18:38 34.073824 -118.499502 147 5492ft 112kts
02-Sep-19 18:39 34.046580 -118.481568 156 5493ft 111kts
02-Sep-19 18:40 34.017345 -118.469179 163 5493ft 111kts
02-Sep-19 18:41 33.987678 -118.458565 163 5493ft 111kts
02-Sep-19 18:42 33.958497 -118.446890 161 5492ft 111kts
02-Sep-19 18:43 33.930304 -118.431500 155 5492ft 111kts
02-Sep-19 18:44 33.907397 -118.406048 137 5490ft 113kts
02-Sep-19 18:45 33.885231 -118.379126 137 5492ft 113kts
02-Sep-19 18:46 33.863073 -118.352145 138 5491ft 113kts
02-Sep-19 18:47 33.840362 -118.326476 141 5490ft 112kts
02-Sep-19 18:48 33.816793 -118.301793 142 5489ft 112kts
02-Sep-19 18:49 33.793312 -118.277253 142 5489ft 111kts
02-Sep-19 18:50 33.769704 -118.253070 144 5489ft 111kts
02-Sep-19 18:51 33.745692 -118.229985 144 5490ft 110kts
02-Sep-19 18:52 33.721596 -118.207079 144 5489ft 110kts
02-Sep-19 18:53 33.722327 -118.173007 61 5380ft 124kts
02-Sep-19 18:54 33.741413 -118.139255 60 5380ft 120kts
02-Sep-19 18:55 33.760486 -118.106404 58 5370ft 119kts
02-Sep-19 18:56 33.780171 -118.074438 74 5022ft 120kts
02-Sep-19 18:57 33.802701 -118.045540 43 4048ft 122kts
02-Sep-19 18:58 33.829748 -118.021273 38 2805ft 119kts
02-Sep-19 18:59 33.858384 -118.003464 50 2120ft 117kts
02-Sep-19 19:00 33.867243 -117.967634 88 911ft 110kts
02-Sep-19 19:01 33.875356 -117.944763 338 660ft 76kts
02-Sep-19 19:02 33.874833 -117.965523 252 354ft 66kts
02-Sep-19 19:03 33.871711 -117.981129 226 95ft 4kts
02-Sep-19 19:04 33.871397 -117.981172 163 95ft 0kts
02-Sep-19 19:05 33.870736 -117.980459 350 95ft 0kts

Navigation Log

Ident Type
Flight plan parsing failed, navigation log unavailable